Tiempo atmosférico en la estación meteorológica de Becerreá, Lugo (1080 m.)



Fecha
DESCASC
Temp. máxima en grados centígrados (hora)
DESCASC
Temp. mínima en grados centígrados (hora)
DESCASC
Temp. media en grados centígrados
DESCASC
Racha de viento máxima en m/sg (hora)
DESCASC
Velocidad máxima media en intervalos de 10 minutos(hora)
DESCASC
Precipitaciones diarias en mm
DESCASC
Precipitaciones de 00:00 a 06:00 en mm
DESCASC
Precipitaciones de 06:00 a 12:00 en mm
DESCASC
Precipitaciones de 12:00 a 18:00 en mm
DESCASC
Precipitaciones de 18:00 a 24:00 en mm
DESCASC
23-06-2019 17.3 (18:10) 9.6 (03:50) 13.4 8.61 (03:30) 4.72 (03:30) 13 7.4 4.8 0.8 0
22-06-2019 21.8 (15:50) 11.1 (00:20) 16.4 8.89 (03:30) 5 (19:50) 0 0 0 0 0
21-06-2019 18.5 (18:00) 8.3 (04:50) 13.4 6.67 (18:20) 3.33 (16:10) 0 0 0 0 0
20-06-2019 14.2 (15:40) 8.9 (00:00) 11.5 6.39 (17:40) 2.5 (16:40) 0.2 0 0 0.2 0
19-06-2019 13.5 (14:50) 9.7 (00:00) 11.6 9.44 (00:20) 4.17 (19:10) 1.6 0.6 0.8 0 0.2
18-06-2019 16 (14:20) 11.3 (00:00) 13.7 12.5 (14:40) 5.28 (16:10) 3.2 0 0 1.4 1.8
17-06-2019 19.1 (12:10) 11.3 (00:00) 15.2 7.78 (14:30) 4.72 (14:30) 0 0 0 0 0
16-06-2019 19.7 (18:40) 5.8 (00:00) 12.8 7.78 (16:00) 3.89 (16:20) 0 0 0 0 0
15-06-2019 13.9 (18:20) 6.2 (00:00) 10 7.22 (17:30) 3.33 (17:30) 0.6 0.4 0.2 0 0
14-06-2019 14.2 (16:10) 4.5 (00:00) 9.3 8.33 (18:00) 4.17 (18:00) 2.4 0 0 0 2.4
13-06-2019 12.6 (17:00) 4.8 (00:00) 8.7 6.67 (18:30) 3.33 (18:50) 0 0 0 0 0
12-06-2019 12.9 (18:10) 3.5 (00:00) 8.2 7.22 (18:40) 3.61 (18:50) 0.4 0 0.4 0 0
11-06-2019 10.5 (17:10) 3.8 (00:00) 7.1 7.5 (14:00) 2.78 (06:10) 1.4 0.8 0.6 0 0
10-06-2019 12.3 (16:30) 4.9 (00:00) 8.6 6.39 (13:50) 2.78 (14:10) 0 0 0 0 0
09-06-2019 12.5 (14:30) 5.9 (00:00) 9.2 7.22 (16:40) 3.61 (18:30) 0 0 0 0 0
08-06-2019 12.4 (16:00) 2.8 (00:00) 7.6 6.67 (16:50) 3.33 (17:10) 0 0 0 0 0
07-06-2019 8.2 (17:10) 2.6 (00:00) 5.4 13.89 (03:30) 5 (02:10) 11.4 4.4 1.2 4.6 1.2
06-06-2019 10.1 (13:40) 3.6 (00:00) 6.9 15.28 (14:20) 6.39 (14:30) 11.6 0 0 7.2 4.4
05-06-2019 7.8 (16:40) 4.2 (00:00) 6 8.89 (07:40) 4.17 (00:40) 12 2.6 3.2 5.2 1
04-06-2019 13.6 (16:10) 6 (00:00) 9.8 11.39 (10:00) 5.28 (05:20) 6.4 0 3 0.2 3.2
03-06-2019 18.7 (16:20) 10.9 (00:00) 14.8 8.89 (19:40) 4.17 (01:30) 0 0 0 0 0
02-06-2019 21.5 (17:50) 13.3 (00:00) 17.4 9.44 (14:30) 3.89 (17:00) 0 0 0 0 0
01-06-2019 26.6 (17:30) 16.3 (00:00) 21.4 8.06 (14:10) 4.17 (22:30) 0 0 0 0 0
31-05-2019 27.1 (17:00) 15.3 (00:00) 21.2 10.28 (04:20) 4.72 (03:30) 0 0 0 0 0
30-05-2019 25.6 (16:40) 12.2 (00:00) 18.9 6.94 (04:10) 4.17 (04:10) 0 0 0 0 0
29-05-2019 20.7 (16:40) 4.5 (00:00) 12.6 6.39 (15:10) 2.22 (15:50) 0 0 0 0 0
28-05-2019 14.9 (16:40) 3.9 (00:00) 9.4 8.89 (10:00) 2.5 (03:00) 0 0 0 0 0
27-05-2019 15.7 (15:00) 5.7 (00:00) 10.7 6.94 (15:10) 2.78 (15:10) 0 0 0 0 0
26-05-2019 19.7 (16:30) 7.5 (00:00) 13.6 6.67 (18:20) 3.33 (20:00) 0 0 0 0 0
25-05-2019 16.9 (16:00) 5.4 (00:00) 11.1 7.5 (00:10) 2.78 (16:30) 0 0 0 0 0

Gráficas

Temp. máximas Temp. mínimas Temp. medias Precipitaciones Rachas de viento máximas Velocidades máximas media en intervalos de 10 minutos

Datos horarios

Fecha y hora oficial Temperatura (ºC) Velocidad del viento (km/h) Dirección del viento Racha (km/h) Dirección de racha Precipitación (mm) Presión (hPa) Tendencia (hPa) Humedad (%)
2019-06-23 23:00:00 13.4 15 Oeste 23 Sudoeste 0 -- -- 89
2019-06-23 22:00:00 14 11 Oeste 23 Sudoeste 0 -- -- 91
2019-06-23 21:00:00 14.8 13 Oeste 21 Oeste 0 -- -- 88
2019-06-23 20:00:00 16.3 7 Oeste 17 Sudoeste 0 -- -- 89
2019-06-23 19:00:00 17.3 5 Sur 14 Sur 0 -- -- 87
2019-06-23 18:00:00 17.2 4 Sur 16 Oeste 0 -- -- 86
2019-06-23 17:00:00 16.7 5 Sudoeste 15 Sudeste 0 -- -- 89
2019-06-23 16:00:00 16 4 Sudoeste 27 Sudoeste 0 -- -- 89
2019-06-23 15:00:00 15.3 6 Sur 24 Sudoeste 0 -- -- 92
2019-06-23 14:00:00 15.7 9 Sur 26 Sur 0 -- -- 90
2019-06-23 13:00:00 15.2 6 Sudeste 22 Sudeste 0.8 -- -- 99
2019-06-23 12:00:00 13.7 5 Sudeste 14 Sur 0 -- -- 98
2019-06-23 11:00:00 13.3 4 Sur 18 Sudeste 1.4 -- -- 98
2019-06-23 10:00:00 12 6 Oeste 18 Sudeste 3.4 -- -- 97
2019-06-23 09:00:00 12.3 9 Sudeste 20 Sudeste 0 -- -- 94
2019-06-23 08:00:00 11.5 13 Sudeste 19 Sudeste 0 -- -- 95
2019-06-23 07:00:00 11.7 11 Sur 25 Sudeste 0 -- -- 95
2019-06-23 06:00:00 11.5 12 Sur 21 Sudeste 1.8 -- -- 97
2019-06-23 05:00:00 10.8 12 Sudeste 25 Sur 2 -- -- 99
2019-06-23 04:00:00 9.6 15 Sudeste 31 Sur 3.6 -- -- 93
2019-06-23 03:00:00 13.3 12 Sudoeste 26 Sudoeste 0 -- -- 67
2019-06-23 02:00:00 14.3 12 Sudoeste 27 Sur 0 -- -- 67
2019-06-23 01:00:00 15.5 11 Sudoeste 22 Sudoeste 0 -- -- 61
2019-06-23 00:00:00 16.1 8 Sur 21 Sur 0 -- -- 60
2019-06-22 23:00:00 15.8 10 Sur 19 Sudoeste 0 -- -- 63
2019-06-22 22:00:00 16 8 Sudoeste 21 Sudoeste 0 -- -- 61
2019-06-22 21:00:00 16.4 11 Oeste 30 Oeste 0 -- -- 67
2019-06-22 20:00:00 17.5 17 Oeste 30 Oeste 0 -- -- 64
2019-06-22 19:00:00 18.7 14 Oeste 29 Oeste 0 -- -- 62
2019-06-22 18:00:00 19.8 12 Sudoeste 31 Norte 0 -- -- 65
2019-06-22 17:00:00 20.4 12 Sudoeste 30 Sudoeste 0 -- -- 54
2019-06-22 16:00:00 21.6 11 Sudoeste 26 Oeste 0 -- -- 55
2019-06-22 15:00:00 20.3 6 Sur 22 Sudoeste 0 -- -- 67
2019-06-22 14:00:00 21.3 6 Sudeste 20 Sudeste 0 -- -- 59
2019-06-22 13:00:00 20.1 4 Este 15 Este 0 -- -- 63
2019-06-22 12:00:00 18.9 4 Nordeste 19 Sur 0 -- -- 65
2019-06-22 11:00:00 15.7 7 Sudeste 23 Este 0 -- -- 75
2019-06-22 10:00:00 15.6 6 Este 27 Este 0 -- -- 71
2019-06-22 09:00:00 14 10 Sudeste 28 Sudeste 0 -- -- 78
2019-06-22 08:00:00 13 14 Sudeste 30 Sur 0 -- -- 73
2019-06-22 07:00:00 12 12 Sudeste 27 Este 0 -- -- 81
2019-06-22 06:00:00 12 13 Sudeste 31 Sudeste 0 -- -- 83
2019-06-22 05:00:00 12.1 12 Sudeste 28 Sudeste 0 -- -- 82
2019-06-22 04:00:00 12.3 14 Sudeste 32 Sudeste 0 -- -- 84
2019-06-22 03:00:00 13.1 13 Sudeste 24 Sudeste 0 -- -- 81
2019-06-22 02:00:00 11.7 6 Sudeste 13 Sudeste 0 -- -- 95
2019-06-22 01:00:00 11.6 8 Sudeste 12 Sudeste 0 -- -- 98
2019-06-22 00:00:00 11.2 0 Calma 5 Sudeste 0 -- -- 95
2019-06-21 23:00:00 11.9 0 Calma 6 Nordeste 0 -- -- 93
2019-06-21 22:00:00 12.8 4 Norte 11 Norte 0 -- -- 90
2019-06-21 21:00:00 14.4 5 Norte 13 Norte 0 -- -- 84
2019-06-21 20:00:00 15.2 5 Noroeste 22 Noroeste 0 -- -- 81
2019-06-21 19:00:00 17.3 8 Noroeste 24 Noroeste 0 -- -- 76
2019-06-21 18:00:00 18.5 7 Noroeste 23 Noroeste 0 -- -- 63
2019-06-21 17:00:00 17.6 8 Oeste 23 Oeste 0 -- -- 71
2019-06-21 16:00:00 17.4 10 Oeste 21 Sudoeste 0 -- -- 71
2019-06-21 15:00:00 16.4 7 Oeste 19 Sudoeste 0 -- -- 74
2019-06-21 14:00:00 14.8 5 Oeste 12 Noroeste 0 -- -- 79
2019-06-21 13:00:00 12.9 2 Sudoeste 12 Este 0 -- -- 84
2019-06-21 12:00:00 13.7 2 Nordeste 10 Nordeste 0 -- -- 87
2019-06-21 11:00:00 11.1 0 Calma 13 Nordeste 0 -- -- 100
2019-06-21 10:00:00 10.4 3 Nordeste 9 Norte 0 -- -- 100
2019-06-21 09:00:00 8.8 3 Nordeste 12 Nordeste 0 -- -- 100
2019-06-21 08:00:00 8.4 0 Calma 9 Nordeste 0 -- -- 100
2019-06-21 07:00:00 8.3 3 Nordeste 9 Este 0 -- -- 100
2019-06-21 06:00:00 8.3 2 Nordeste 9 Nordeste 0 -- -- 100
2019-06-21 05:00:00 8.4 0 Calma 10 Sudeste 0 -- -- 100
2019-06-21 04:00:00 8.4 2 Nordeste 10 Nordeste 0 -- -- 100
2019-06-21 03:00:00 8.6 2 Nordeste 13 Nordeste 0 -- -- 100
2019-06-21 02:00:00 8.7 4 Nordeste 15 Norte 0 -- -- 100
2019-06-21 01:00:00 8.8 4 Nordeste 17 Este 0 -- -- 100
2019-06-21 00:00:00 8.9 4 Nordeste 16 Nordeste 0 -- -- 100
2019-06-20 23:00:00 8.9 6 Nordeste 22 Nordeste 0 -- -- 100
2019-06-20 22:00:00 9.6 7 Nordeste 19 Nordeste 0 -- -- 100
2019-06-20 21:00:00 10.4 5 Nordeste 14 Norte 0 -- -- 99
2019-06-20 20:00:00 10.7 3 Nordeste 15 Nordeste 0 -- -- 98
2019-06-20 19:00:00 11.4 5 Nordeste 22 Nordeste 0 -- -- 96
2019-06-20 18:00:00 12.2 5 Nordeste 23 Noroeste 0 -- -- 95
2019-06-20 17:00:00 12.7 8 Norte 21 Norte 0 -- -- 95
2019-06-20 16:00:00 13.1 8 Norte 18 Norte 0.2 -- -- 92
2019-06-20 15:00:00 13.2 6 Norte 18 Norte 0 -- -- 92
2019-06-20 14:00:00 13.6 5 Nordeste 14 Norte 0 -- -- 91
2019-06-20 13:00:00 12 5 Nordeste 14 Nordeste 0 -- -- 100
2019-06-20 12:00:00 11.5 0 Calma 8 Norte 0 -- -- 100
2019-06-20 11:00:00 11.3 3 Nordeste 10 Este 0 -- -- 100
2019-06-20 10:00:00 10.5 2 Nordeste 12 Este 0 -- -- 100
2019-06-20 09:00:00 10.1 3 Nordeste 14 Nordeste 0 -- -- 100
2019-06-20 08:00:00 9.8 3 Nordeste 12 Norte 0 -- -- 100
2019-06-20 07:00:00 9.6 2 Nordeste 9 Nordeste 0 -- -- 100
2019-06-20 06:00:00 9.9 3 Nordeste 11 Norte 0 -- -- 100
2019-06-20 05:00:00 10.1 3 Nordeste 9 Este 0 -- -- 100
2019-06-20 04:00:00 10.2 3 Nordeste 10 Norte 0 -- -- 100
2019-06-20 03:00:00 10.5 2 Norte 5 Norte 0 -- -- 100
2019-06-20 02:00:00 10.5 0 Calma 3 Nordeste 0 -- -- 100
2019-06-20 01:00:00 10.5 0 Calma 6 Norte 0 -- -- 100
2019-06-20 00:00:00 10.5 2 Noroeste 10 Noroeste 0 -- -- 100
2019-06-19 23:00:00 10.7 6 Oeste 17 Oeste 0.2 -- -- 100
2019-06-19 22:00:00 10.8 8 Oeste 15 Oeste 0 -- -- 99
2019-06-19 21:00:00 11.8 4 Oeste 21 Oeste 0 -- -- 97
2019-06-19 20:00:00 11.8 10 Oeste 26 Sudoeste 0 -- -- 99
2019-06-19 19:00:00 11.6 13 Oeste 25 Sudoeste 0 -- -- 98
2019-06-19 18:00:00 12.8 10 Oeste 27 Sudoeste 0 -- -- 92
2019-06-19 17:00:00 12.5 11 Sudoeste 27 Sudoeste 0 -- -- 92
2019-06-19 16:00:00 13 8 Sudoeste 19 Sudoeste 0 -- -- 85
2019-06-19 15:00:00 13.4 8 Sudoeste 27 Oeste 0 -- -- 85
2019-06-19 14:00:00 12.6 8 Sudoeste 22 Sudoeste 0 -- -- 90
2019-06-19 13:00:00 11.9 12 Sudoeste 27 Oeste 0 -- -- 92
2019-06-19 12:00:00 11.3 8 Sudoeste 23 Sudoeste 0 -- -- 100
2019-06-19 11:00:00 10.2 10 Sudoeste 28 Oeste 0 -- -- 100
2019-06-19 10:00:00 9.9 13 Sudoeste 33 Oeste 0 -- -- 100
2019-06-19 09:00:00 9.7 13 Sudoeste 31 Sudoeste 0.2 -- -- 100
2019-06-19 08:00:00 9.9 9 Sur 26 Sudoeste 0 -- -- 100
2019-06-19 07:00:00 10.2 10 Sudoeste 28 Sudoeste 0.6 -- -- 100
2019-06-19 06:00:00 10.4 6 Sudoeste 21 Sudoeste 0.4 -- -- 100
2019-06-19 05:00:00 10.8 6 Sudoeste 30 Sur 0.2 -- -- 100
2019-06-19 04:00:00 10.8 8 Sur 27 Sudoeste 0 -- -- 100
2019-06-19 03:00:00 10.7 11 Sudoeste 28 Sudoeste 0 -- -- 100
2019-06-19 02:00:00 10.8 12 Sudoeste 32 Sudoeste 0 -- -- 100
2019-06-19 01:00:00 11 12 Sudoeste 34 Sur 0 -- -- 99
2019-06-19 00:00:00 11.3 8 Sudoeste 31 Oeste 0 -- -- 98
2019-06-18 23:00:00 11.7 10 Sudoeste 28 Sudoeste 0 -- -- 97
2019-06-18 22:00:00 11.6 13 Sudoeste 42 Sudoeste 0.2 -- -- 98
2019-06-18 21:00:00 12 13 Sudoeste 37 Sudoeste 0 -- -- 98
2019-06-18 20:00:00 12.4 14 Sudoeste 33 Sur 0 -- -- 96
2019-06-18 19:00:00 13.6 12 Sur 28 Sudoeste 1.6 -- -- 95
2019-06-18 18:00:00 12.9 12 Sudoeste 24 Sudoeste 1.2 -- -- 92
2019-06-18 17:00:00 14.1 13 Sur 35 Sur 0.2 -- -- 83
2019-06-18 16:00:00 16 8 Sudeste 28 Sur 0 -- -- 70
2019-06-18 15:00:00 16 11 Sur 45 Sur 0 -- -- 66
2019-06-18 14:00:00 15.1 11 Sur 33 Sudeste 0 -- -- 73
2019-06-18 13:00:00 15.2 10 Sur 29 Sur 0 -- -- 76
2019-06-18 12:00:00 14.1 10 Sur 22 Sur 0 -- -- 78
2019-06-18 11:00:00 14.2 8 Sudeste 24 Sur 0 -- -- 71
2019-06-18 10:00:00 13.3 10 Sur 32 Sur 0 -- -- 64
2019-06-18 09:00:00 12.8 11 Sudoeste 24 Sudoeste 0 -- -- 61
2019-06-18 08:00:00 14.8 12 Sur 24 Sur 0 -- -- 51
2019-06-18 07:00:00 14.4 11 Sudoeste 19 Sur 0 -- -- 54
2019-06-18 06:00:00 14.3 9 Sur 15 Sudeste 0 -- -- 52
2019-06-18 05:00:00 14.5 9 Sur 18 Sur 0 -- -- 50
2019-06-18 04:00:00 14.5 8 Sur 18 Sudeste 0 -- -- 48
2019-06-18 03:00:00 14.6 10 Sudeste 21 Sudeste 0 -- -- 47
2019-06-18 02:00:00 14.6 8 Sudeste 19 Sur 0 -- -- 50
2019-06-18 01:00:00 15.4 12 Sur 23 Sur 0 -- -- 46
2019-06-18 00:00:00 15.4 10 Sudeste 27 Sudeste 0 -- -- 46
2019-06-17 23:00:00 14.8 10 Sudeste 20 Sudeste 0 -- -- 49
2019-06-17 22:00:00 15.2 9 Sudeste 18 Sudoeste 0 -- -- 55
2019-06-17 21:00:00 16.9 7 Sur 18 Oeste 0 -- -- 61
2019-06-17 20:00:00 16.3 8 Sudoeste 21 Oeste 0 -- -- 79
2019-06-17 19:00:00 16.2 10 Oeste 22 Noroeste 0 -- -- 84
2019-06-17 18:00:00 16.4 4 Sudoeste 25 Sudoeste 0 -- -- 74
2019-06-17 17:00:00 16.2 7 Oeste 26 Sudoeste 0 -- -- 73
2019-06-17 16:00:00 15.9 14 Oeste 27 Sudoeste 0 -- -- 69
2019-06-17 15:00:00 15.4 15 Oeste 28 Oeste 0 -- -- 81
2019-06-17 14:00:00 16.8 13 Oeste 23 Oeste 0 -- -- 79
2019-06-17 13:00:00 18.3 6 Oeste 12 Oeste 0 -- -- 72
2019-06-17 12:00:00 19 5 Este 19 Sudeste 0 -- -- 67
2019-06-17 11:00:00 16.7 3 Sudeste 18 Sudeste 0 -- -- 73
2019-06-17 10:00:00 15.5 6 Sudeste 20 Sudeste 0 -- -- 75
2019-06-17 09:00:00 14.1 2 Este 18 Sudeste 0 -- -- 81
2019-06-17 08:00:00 12.8 12 Sur 18 Sur 0 -- -- 84
2019-06-17 07:00:00 12.6 7 Sur 17 Sudeste 0 -- -- 86
2019-06-17 06:00:00 12.8 9 Sur 14 Sudeste 0 -- -- 88
2019-06-17 05:00:00 12.2 3 Sur 9 Sudeste 0 -- -- 94
2019-06-17 04:00:00 12.2 5 Sudeste 8 Sudeste 0 -- -- 95
2019-06-17 03:00:00 11.9 2 Sudeste 7 Sudeste 0 -- -- 95
2019-06-17 02:00:00 12 3 Sudeste 8 Este 0 -- -- 97
2019-06-17 01:00:00 11.6 0 Calma 4 Sudeste 0 -- -- 95
2019-06-17 00:00:00 12.2 0 Calma 9 Nordeste 0 -- -- 93
2019-06-16 23:00:00 12.7 3 Oeste 12 Oeste 0 -- -- 90
2019-06-16 22:00:00 13.7 9 Oeste 15 Oeste 0 -- -- 87
2019-06-16 21:00:00 15.3 7 Noroeste 16 Noroeste 0 -- -- 81
2019-06-16 20:00:00 17.4 7 Norte 15 Norte 0 -- -- 72
2019-06-16 19:00:00 19.7 8 Oeste 18 Oeste 0 -- -- 52
2019-06-16 18:00:00 19.5 10 Noroeste 26 Oeste 0 -- -- 56
2019-06-16 17:00:00 19.1 11 Oeste 24 Oeste 0 -- -- 59
2019-06-16 16:00:00 18.6 11 Oeste 28 Oeste 0 -- -- 56
2019-06-16 15:00:00 17.7 11 Oeste 22 Oeste 0 -- -- 54
2019-06-16 14:00:00 17.3 8 Oeste 19 Oeste 0 -- -- 65
2019-06-16 13:00:00 17.1 3 Nordeste 13 Sudoeste 0 -- -- 68
2019-06-16 12:00:00 15.5 4 Sudeste 17 Sudeste 0 -- -- 71
2019-06-16 11:00:00 13.3 6 Sudeste 15 Sudeste 0 -- -- 79
2019-06-16 10:00:00 11.7 5 Sudeste 16 Sudeste 0 -- -- 84
2019-06-16 09:00:00 9.8 7 Sudeste 19 Sudeste 0 -- -- 87
2019-06-16 08:00:00 8.3 8 Sudeste 17 Sudeste 0 -- -- 100
2019-06-16 07:00:00 7.1 5 Sudeste 11 Sudeste 0 -- -- 100
2019-06-16 06:00:00 5.9 3 Sudeste 6 Sudeste 0 -- -- 99
2019-06-16 05:00:00 5.9 0 Calma 5 Este 0 -- -- 97
2019-06-16 04:00:00 6.5 0 Calma 2 Sudeste 0 -- -- 96
2019-06-16 03:00:00 6.5 0 Calma 3 Sudeste 0 -- -- 95
2019-06-16 02:00:00 6.9 0 Calma 5 Norte 0 -- -- 93
2019-06-16 01:00:00 7.9 3 Norte 8 Oeste 0 -- -- 91
2019-06-16 00:00:00 8.3 6 Noroeste 11 Oeste 0 -- -- 90
2019-06-15 23:00:00 8.3 6 Oeste 16 Oeste 0 -- -- 89
2019-06-15 22:00:00 9.4 11 Oeste 18 Oeste 0 -- -- 84
2019-06-15 21:00:00 11.1 11 Oeste 20 Oeste 0 -- -- 80
2019-06-15 20:00:00 11.4 9 Oeste 18 Oeste 0 -- -- 76
2019-06-15 19:00:00 12.5 8 Oeste 20 Noroeste 0 -- -- 72
2019-06-15 18:00:00 13.7 10 Noroeste 26 Oeste 0 -- -- 66
2019-06-15 17:00:00 13.1 10 Oeste 22 Noroeste 0 -- -- 66
2019-06-15 16:00:00 12.4 9 Oeste 18 Oeste 0 -- -- 67
2019-06-15 15:00:00 11.1 6 Oeste 22 Oeste 0 -- -- 77
2019-06-15 14:00:00 11 7 Oeste 18 Oeste 0 -- -- 78
2019-06-15 13:00:00 9.4 5 Oeste 19 Oeste 0 -- -- 82
2019-06-15 12:00:00 9.8 7 Sudoeste 19 Sudoeste 0 -- -- 83
2019-06-15 11:00:00 8.1 6 Oeste 19 Sudoeste 0 -- -- 97
2019-06-15 10:00:00 7.1 3 Oeste 15 Oeste 0 -- -- 100
2019-06-15 09:00:00 6.3 7 Sudoeste 21 Oeste 0 -- -- 100
2019-06-15 08:00:00 6.4 6 Sudoeste 19 Sudoeste 0 -- -- 100
2019-06-15 07:00:00 6.2 6 Sur 18 Sudoeste 0.2 -- -- 100
2019-06-15 06:00:00 6.4 5 Sudoeste 12 Sur 0 -- -- 100
2019-06-15 05:00:00 6.5 4 Sudoeste 10 Sudoeste 0.4 -- -- 100
2019-06-15 04:00:00 6.5 4 Sudoeste 17 Oeste 0 -- -- 100
2019-06-15 03:00:00 6.5 9 Oeste 18 Sudoeste 0 -- -- 100
2019-06-15 02:00:00 6.8 3 Sudeste 12 Sur 0 -- -- 100
2019-06-15 01:00:00 6.9 3 Sur 9 Sur 0 -- -- 100
2019-06-15 00:00:00 7.1 5 Oeste 24 Oeste 0 -- -- 100
2019-06-14 23:00:00 7.2 14 Oeste 29 Oeste 0 -- -- 99
2019-06-14 22:00:00 7.6 14 Noroeste 30 Noroeste 2.4 -- -- 97
2019-06-14 21:00:00 8.6 14 Oeste 25 Noroeste 0 -- -- 94
2019-06-14 20:00:00 9.8 9 Oeste 28 Oeste 0 -- -- 79
2019-06-14 19:00:00 10.6 13 Oeste 30 Noroeste 0 -- -- 71
2019-06-14 18:00:00 11.2 15 Oeste 30 Oeste 0 -- -- 71
2019-06-14 17:00:00 12.2 12 Oeste 25 Oeste 0 -- -- 67
2019-06-14 16:00:00 14.1 9 Oeste 24 Oeste 0 -- -- 57
2019-06-14 15:00:00 13.4 8 Oeste 28 Oeste 0 -- -- 60
2019-06-14 14:00:00 12.3 11 Oeste 23 Oeste 0 -- -- 74
2019-06-14 13:00:00 10.2 7 Noroeste 15 Oeste 0 -- -- 82
2019-06-14 12:00:00 9.1 4 Noroeste 10 Noroeste 0 -- -- 84
2019-06-14 11:00:00 8.2 4 Oeste 10 Oeste 0 -- -- 87
2019-06-14 10:00:00 7.9 3 Noroeste 8 Sudoeste 0 -- -- 87
2019-06-14 09:00:00 7.6 4 Norte 8 Nordeste 0 -- -- 87
2019-06-14 08:00:00 5.9 0 Calma 4 Norte 0 -- -- 98
2019-06-14 07:00:00 4.6 0 Calma 5 Este 0 -- -- 99
2019-06-14 06:00:00 4.9 2 Este 7 Este 0 -- -- 99
2019-06-14 05:00:00 5.5 2 Este 6 Este 0 -- -- 100
2019-06-14 04:00:00 5.9 2 Este 11 Nordeste 0 -- -- 99
2019-06-14 03:00:00 5.9 0 Calma 7 Nordeste 0 -- -- 99
2019-06-14 02:00:00 6.1 3 Nordeste 8 Nordeste 0 -- -- 98
2019-06-14 01:00:00 6.2 0 Calma 9 Nordeste 0 -- -- 96
2019-06-14 00:00:00 6.9 3 Oeste 13 Norte 0 -- -- 97
2019-06-13 23:00:00 6.9 5 Noroeste 16 Noroeste 0 -- -- 96
2019-06-13 22:00:00 7.4 10 Noroeste 18 Oeste 0 -- -- 92
2019-06-13 21:00:00 10 10 Oeste 22 Oeste 0 -- -- 76
2019-06-13 20:00:00 10.9 12 Noroeste 24 Noroeste 0 -- -- 71
2019-06-13 19:00:00 11.9 10 Oeste 24 Oeste 0 -- -- 62
2019-06-13 18:00:00 11.7 10 Oeste 24 Sudoeste 0 -- -- 61
2019-06-13 17:00:00 12.6 9 Noroeste 19 Oeste 0 -- -- 67
2019-06-13 16:00:00 11.9 9 Oeste 21 Oeste 0 -- -- 60
2019-06-13 15:00:00 11.7 5 Sudoeste 19 Oeste 0 -- -- 62
2019-06-13 14:00:00 10 8 Oeste 21 Oeste 0 -- -- 74
2019-06-13 13:00:00 8.7 10 Oeste 18 Oeste 0 -- -- 84
2019-06-13 12:00:00 7.5 8 Noroeste 15 Oeste 0 -- -- 88
2019-06-13 11:00:00 7 2 Norte 6 Nordeste 0 -- -- 95
2019-06-13 10:00:00 5.6 2 Este 7 Nordeste 0 -- -- 100
2019-06-13 09:00:00 5.3 0 Calma 6 Este 0 -- -- 100
2019-06-13 08:00:00 4.9 0 Calma 8 Este 0 -- -- 100
2019-06-13 07:00:00 4.8 0 Calma 6 Este 0 -- -- 100
2019-06-13 06:00:00 5 2 Nordeste 8 Norte 0 -- -- 100
2019-06-13 05:00:00 5.1 0 Calma 8 Este 0 -- -- 100
2019-06-13 04:00:00 5.3 0 Calma 7 Sudeste 0 -- -- 99
2019-06-13 03:00:00 5.5 0 Calma 7 Este 0 -- -- 99
2019-06-13 02:00:00 5.3 0 Calma 9 Nordeste 0 -- -- 98
2019-06-13 01:00:00 5.6 2 Nordeste 9 Nordeste 0 -- -- 98
2019-06-13 00:00:00 5.7 3 Nordeste 9 Este 0 -- -- 97
2019-06-12 23:00:00 6.2 3 Nordeste 11 Nordeste 0 -- -- 94
2019-06-12 22:00:00 7.1 5 Norte 16 Noroeste 0 -- -- 91
2019-06-12 21:00:00 7.9 8 Noroeste 20 Noroeste 0 -- -- 90
2019-06-12 20:00:00 8.5 11 Noroeste 19 Noroeste 0 -- -- 87
2019-06-12 19:00:00 10.8 9 Oeste 26 Noroeste 0 -- -- 63
2019-06-12 18:00:00 12.5 7 Noroeste 19 Oeste 0 -- -- 51
2019-06-12 17:00:00 10.9 7 Oeste 19 Noroeste 0 -- -- 59
2019-06-12 16:00:00 10.8 5 Sudoeste 15 Oeste 0 -- -- 57
2019-06-12 15:00:00 9.7 0 Calma 17 Oeste 0 -- -- 71
2019-06-12 14:00:00 8.9 9 Oeste 19 Oeste 0 -- -- 71
2019-06-12 13:00:00 7.9 9 Oeste 17 Oeste 0 -- -- 80
2019-06-12 12:00:00 6.7 8 Oeste 14 Oeste 0 -- -- 91
2019-06-12 11:00:00 5.6 4 Oeste 13 Norte 0 -- -- 92
2019-06-12 10:00:00 5 4 Oeste 13 Oeste 0 -- -- 99
2019-06-12 09:00:00 4.4 4 Oeste 14 Sudoeste 0 -- -- 100
2019-06-12 08:00:00 3.9 7 Oeste 24 Oeste 0 -- -- 100
2019-06-12 07:00:00 3.8 10 Oeste 17 Noroeste 0.4 -- -- 100
2019-06-12 06:00:00 4.1 5 Oeste 10 Oeste 0 -- -- 99
2019-06-12 05:00:00 3.9 6 Oeste 14 Oeste 0 -- -- 98
2019-06-12 04:00:00 3.6 4 Noroeste 12 Noroeste 0 -- -- 97
2019-06-12 03:00:00 3.5 7 Noroeste 15 Noroeste 0 -- -- 96
2019-06-12 02:00:00 4.2 4 Noroeste 13 Norte 0 -- -- 98
2019-06-12 01:00:00 4.9 5 Noroeste 14 Noroeste 0 -- -- 97
2019-06-12 00:00:00 5.1 5 Noroeste 12 Norte 0 -- -- 97
2019-06-11 23:00:00 5.4 5 Noroeste 14 Oeste 0 -- -- 94
2019-06-11 22:00:00 6.5 4 Norte 21 Noroeste 0 -- -- 90
2019-06-11 21:00:00 8 6 Norte 18 Norte 0 -- -- 81
2019-06-11 20:00:00 8.5 7 Noroeste 19 Noroeste 0 -- -- 75
2019-06-11 19:00:00 8.9 8 Noroeste 24 Norte 0 -- -- 75
2019-06-11 18:00:00 10.1 9 Norte 23 Norte 0 -- -- 71
2019-06-11 17:00:00 9.9 9 Norte 26 Norte 0 -- -- 77
2019-06-11 16:00:00 10.4 7 Norte 27 Norte 0 -- -- 70
2019-06-11 15:00:00 9.6 9 Norte 23 Norte 0 -- -- 73
2019-06-11 14:00:00 9.3 7 Nordeste 27 Nordeste 0 -- -- 80
2019-06-11 13:00:00 7.6 8 Nordeste 27 Nordeste 0 -- -- 89
2019-06-11 12:00:00 6.3 6 Norte 22 Nordeste 0 -- -- 94
2019-06-11 11:00:00 6.4 8 Nordeste 23 Norte 0.2 -- -- 100
2019-06-11 10:00:00 4.7 5 Nordeste 19 Nordeste 0.2 -- -- 100
2019-06-11 09:00:00 4.1 6 Nordeste 19 Nordeste 0 -- -- 100
2019-06-11 08:00:00 4.8 5 Nordeste 19 Norte 0 -- -- 100
2019-06-11 07:00:00 4.3 6 Nordeste 24 Norte 0.2 -- -- 100
2019-06-11 06:00:00 4.8 8 Norte 25 Norte 0.8 -- -- 100
2019-06-11 05:00:00 4.8 4 Norte 13 Norte 0 -- -- 99
2019-06-11 04:00:00 4.9 6 Noroeste 13 Oeste 0 -- -- 97
2019-06-11 03:00:00 4.9 4 Noroeste 11 Noroeste 0 -- -- 95
2019-06-11 02:00:00 5 3 Norte 14 Norte 0 -- -- 96
2019-06-11 01:00:00 5.2 5 Nordeste 13 Norte 0 -- -- 97
2019-06-11 00:00:00 5.6 3 Nordeste 11 Nordeste 0 -- -- 96
2019-06-10 23:00:00 6 2 Nordeste 15 Norte 0 -- -- 96
2019-06-10 22:00:00 6.6 6 Norte 21 Noroeste 0 -- -- 94
2019-06-10 21:00:00 8.7 6 Noroeste 17 Oeste 0 -- -- 89
2019-06-10 20:00:00 10.3 6 Noroeste 19 Noroeste 0 -- -- 78
2019-06-10 19:00:00 11.8 9 Oeste 18 Oeste 0 -- -- 66
2019-06-10 18:00:00 11.5 10 Noroeste 21 Noroeste 0 -- -- 66
2019-06-10 17:00:00 12.2 8 Oeste 20 Oeste 0 -- -- 64
2019-06-10 16:00:00 11.3 6 Oeste 19 Noroeste 0 -- -- 66
2019-06-10 15:00:00 10 9 Oeste 21 Sudoeste 0 -- -- 72
2019-06-10 14:00:00 10.4 8 Oeste 23 Oeste 0 -- -- 71
2019-06-10 13:00:00 9.5 9 Oeste 17 Noroeste 0 -- -- 83
2019-06-10 12:00:00 8.4 8 Oeste 16 Oeste 0 -- -- 86
2019-06-10 11:00:00 7.7 2 Noroeste 8 Norte 0 -- -- 94
2019-06-10 10:00:00 6.6 4 Norte 8 Norte 0 -- -- 98
2019-06-10 09:00:00 5.8 0 Calma 5 Norte 0 -- -- 100
2019-06-10 08:00:00 5.3 3 Nordeste 9 Noroeste 0 -- -- 100
2019-06-10 07:00:00 5.3 0 Calma 8 Noroeste 0 -- -- 100
2019-06-10 06:00:00 4.9 0 Calma 5 Noroeste 0 -- -- 99
2019-06-10 05:00:00 5.1 0 Calma 6 Sudeste 0 -- -- 99
2019-06-10 04:00:00 5.5 2 Sudeste 7 Este 0 -- -- 99
2019-06-10 03:00:00 6.4 0 Calma 6 Sudeste 0 -- -- 100
2019-06-10 02:00:00 6.5 0 Calma 5 Sudeste 0 -- -- 99
2019-06-10 01:00:00 6.2 0 Calma 9 Norte 0 -- -- 98
2019-06-10 00:00:00 6.9 4 Norte 10 Noroeste 0 -- -- 98
2019-06-09 23:00:00 7.2 3 Norte 9 Nordeste 0 -- -- 96
2019-06-09 22:00:00 7.7 3 Nordeste 11 Norte 0 -- -- 95
2019-06-09 21:00:00 9.2 5 Noroeste 16 Norte 0 -- -- 84
2019-06-09 20:00:00 10 7 Noroeste 24 Oeste 0 -- -- 84
2019-06-09 19:00:00 10.9 11 Noroeste 24 Oeste 0 -- -- 79
2019-06-09 18:00:00 11.3 12 Noroeste 23 Noroeste 0 -- -- 78
2019-06-09 17:00:00 11 10 Noroeste 26 Noroeste 0 -- -- 79
2019-06-09 16:00:00 10.7 8 Noroeste 24 Oeste 0 -- -- 83
2019-06-09 15:00:00 12.2 10 Oeste 22 Noroeste 0 -- -- 69
2019-06-09 14:00:00 11.5 10 Oeste 21 Noroeste 0 -- -- 80
2019-06-09 13:00:00 10.6 9 Oeste 18 Oeste 0 -- -- 80
2019-06-09 12:00:00 9 8 Oeste 16 Noroeste 0 -- -- 88
2019-06-09 11:00:00 7.5 2 Norte 7 Oeste 0 -- -- 100
2019-06-09 10:00:00 6.9 4 Oeste 10 Noroeste 0 -- -- 100
2019-06-09 09:00:00 6.7 0 Calma 4 Noroeste 0 -- -- 100
2019-06-09 08:00:00 6.2 2 Nordeste 6 Nordeste 0 -- -- 100
2019-06-09 07:00:00 6 2 Norte 5 Nordeste 0 -- -- 100
2019-06-09 06:00:00 6.1 0 Calma 5 Este 0 -- -- 100
2019-06-09 05:00:00 6.2 0 Calma 4 Nordeste 0 -- -- 100
2019-06-09 04:00:00 6.3 0 Calma 6 Este 0 -- -- 100
2019-06-09 03:00:00 6.5 0 Calma 8 Sudeste 0 -- -- 100
2019-06-09 02:00:00 6.7 0 Calma 5 Sudeste 0 -- -- 100
2019-06-09 01:00:00 6.9 0 Calma 6 Norte 0 -- -- 100
2019-06-09 00:00:00 6.9 0 Calma 6 Sudeste 0 -- -- 99
2019-06-08 23:00:00 6.9 0 Calma 4 Sudeste 0 -- -- 98
2019-06-08 22:00:00 7.5 2 Nordeste 9 Nordeste 0 -- -- 97
2019-06-08 21:00:00 8.6 4 Nordeste 15 Norte 0 -- -- 95
2019-06-08 20:00:00 8.7 6 Norte 15 Norte 0 -- -- 93
2019-06-08 19:00:00 9.4 5 Nordeste 13 Norte 0 -- -- 91
2019-06-08 18:00:00 10.9 5 Norte 22 Oeste 0 -- -- 83
2019-06-08 17:00:00 12 9 Oeste 24 Noroeste 0 -- -- 76
2019-06-08 16:00:00 12.4 8 Noroeste 17 Noroeste 0 -- -- 75
2019-06-08 15:00:00 11.6 6 Oeste 14 Oeste 0 -- -- 72
2019-06-08 14:00:00 11.6 2 Norte 9 Sudeste 0 -- -- 72
2019-06-08 13:00:00 11.1 3 Este 8 Este 0 -- -- 77
2019-06-08 12:00:00 9.6 3 Este 8 Este 0 -- -- 89
2019-06-08 11:00:00 7.7 3 Este 10 Este 0 -- -- 100
2019-06-08 10:00:00 6.4 4 Este 12 Nordeste 0 -- -- 100
2019-06-08 09:00:00 5.3 3 Este 10 Sudeste 0 -- -- 100
2019-06-08 08:00:00 4.6 3 Sudeste 11 Este 0 -- -- 100
2019-06-08 07:00:00 3.1 4 Sudeste 10 Sudeste 0 -- -- 100
2019-06-08 06:00:00 3.2 0 Calma 5 Este 0 -- -- 100
2019-06-08 05:00:00 3.2 0 Calma 4 Sudoeste 0 -- -- 100
2019-06-08 04:00:00 3.5 0 Calma 6 Oeste 0 -- -- 100
2019-06-08 03:00:00 3.8 4 Sudoeste 10 Sudoeste 0 -- -- 99
2019-06-08 02:00:00 4.5 8 Sudoeste 15 Sudoeste 0 -- -- 99
2019-06-08 01:00:00 5 7 Oeste 12 Oeste 0 -- -- 99
2019-06-08 00:00:00 5 6 Oeste 14 Oeste 0 -- -- 99
2019-06-07 23:00:00 5.6 8 Oeste 15 Noroeste 0 -- -- 97
2019-06-07 22:00:00 6.1 3 Oeste 12 Sudoeste 0 -- -- 95
2019-06-07 21:00:00 6.9 5 Oeste 14 Oeste 0 -- -- 97
2019-06-07 20:00:00 6.7 6 Oeste 19 Oeste 0.2 -- -- 99
2019-06-07 19:00:00 6 9 Oeste 22 Sudoeste 1 -- -- 95
2019-06-07 18:00:00 6.8 6 Sudoeste 26 Oeste 0.4 -- -- 91
2019-06-07 17:00:00 8.1 8 Oeste 26 Oeste 0.2 -- -- 95
2019-06-07 16:00:00 5.1 14 Oeste 39 Noroeste 2.6 -- -- 92
2019-06-07 15:00:00 7 9 Sudoeste 29 Sudoeste 0 -- -- 96
2019-06-07 14:00:00 5.8 10 Oeste 28 Oeste 1.4 -- -- 99
2019-06-07 13:00:00 7.8 10 Oeste 30 Oeste 0 -- -- 86
2019-06-07 12:00:00 6.3 8 Oeste 27 Oeste 0 -- -- 100
2019-06-07 11:00:00 4.1 12 Oeste 32 Oeste 0 -- -- 100
2019-06-07 10:00:00 4 10 Oeste 27 Sudoeste 0.4 -- -- 100
2019-06-07 09:00:00 3.5 9 Sudoeste 28 Sudoeste 0 -- -- 100
2019-06-07 08:00:00 3.3 12 Oeste 34 Oeste 0.2 -- -- 100
2019-06-07 07:00:00 3 12 Oeste 37 Oeste 0.6 -- -- 100
2019-06-07 06:00:00 3 11 Sur 33 Sudoeste 0.2 -- -- 100
2019-06-07 05:00:00 2.9 12 Sur 41 Sudoeste 0 -- -- 100
2019-06-07 04:00:00 2.9 11 Sudoeste 50 Oeste 0.2 -- -- 100
2019-06-07 03:00:00 3 14 Sudoeste 47 Oeste 1.2 -- -- 100
2019-06-07 02:00:00 3.2 14 Oeste 42 Oeste 2 -- -- 100
2019-06-07 01:00:00 3.7 14 Sudoeste 45 Sudoeste 0.8 -- -- 100
2019-06-07 00:00:00 4.1 11 Sudoeste 50 Sudoeste 0 -- -- 100
2019-06-06 23:00:00 4.4 16 Oeste 45 Oeste 1 -- -- 99
2019-06-06 22:00:00 5.3 10 Oeste 42 Sudoeste 3 -- -- 98
2019-06-06 21:00:00 6.1 16 Sudoeste 45 Sur 0 -- -- 94
2019-06-06 20:00:00 7.2 18 Sudoeste 53 Sudoeste 0 -- -- 94
2019-06-06 19:00:00 7.8 17 Sudoeste 52 Sudoeste 0.4 -- -- 97
2019-06-06 18:00:00 7.9 20 Sur 55 Sur 3.8 -- -- 96
2019-06-06 17:00:00 8.2 19 Sur 44 Sur 1.6 -- -- 95
2019-06-06 16:00:00 7.7 16 Sur 42 Sudeste 1.6 -- -- 95
2019-06-06 15:00:00 8.5 18 Sur 55 Sur 0.2 -- -- 87
2019-06-06 14:00:00 9.5 14 Sudeste 43 Sudeste 0 -- -- 76
2019-06-06 13:00:00 8.5 12 Sudeste 34 Sudeste 0 -- -- 80
2019-06-06 12:00:00 9.1 5 Sudeste 25 Sudeste 0 -- -- 86
2019-06-06 11:00:00 8.8 5 Sudeste 26 Sudeste 0 -- -- 91
2019-06-06 10:00:00 6.5 3 Este 13 Este 0 -- -- 97
2019-06-06 09:00:00 5.6 5 Sudeste 21 Sudeste 0 -- -- 96
2019-06-06 08:00:00 4.6 9 Sudeste 19 Sudeste 0 -- -- 93
2019-06-06 07:00:00 4.4 13 Sur 27 Sudoeste 0 -- -- 93
2019-06-06 06:00:00 4.4 14 Sur 26 Sur 0 -- -- 93
2019-06-06 05:00:00 4.4 7 Sur 24 Sudoeste 0 -- -- 96
2019-06-06 04:00:00 4.1 8 Sur 23 Sur 0 -- -- 97
2019-06-06 03:00:00 3.8 4 Sur 13 Sur 0 -- -- 96
2019-06-06 02:00:00 3.9 4 Sudoeste 14 Oeste 0 -- -- 97
2019-06-06 01:00:00 4.2 4 Sur 17 Oeste 0 -- -- 98
2019-06-06 00:00:00 4.2 6 Sudoeste 15 Sudoeste 0 -- -- 98
2019-06-05 23:00:00 4.3 2 Sudeste 15 Oeste 0 -- -- 98
2019-06-05 22:00:00 4.7 6 Oeste 14 Noroeste 0 -- -- 98
2019-06-05 21:00:00 5.5 7 Noroeste 17 Oeste 0 -- -- 95
2019-06-05 20:00:00 6 9 Oeste 31 Noroeste 1 -- -- 95
2019-06-05 19:00:00 7 5 Oeste 21 Sudoeste 0 -- -- 95
2019-06-05 18:00:00 5.3 9 Oeste 28 Oeste 2.2 -- -- 99
2019-06-05 17:00:00 7 5 Oeste 18 Sudoeste 0.2 -- -- 90
2019-06-05 16:00:00 6.1 11 Oeste 24 Oeste 1.4 -- -- 91
2019-06-05 15:00:00 6.7 10 Oeste 29 Noroeste 0.2 -- -- 97
2019-06-05 14:00:00 6.4 11 Oeste 32 Oeste 1 -- -- 96
2019-06-05 13:00:00 6.1 9 Oeste 29 Oeste 0.2 -- -- 97
2019-06-05 12:00:00 5.3 11 Oeste 28 Oeste 2.2 -- -- 100
2019-06-05 11:00:00 5.1 7 Oeste 29 Sudoeste 0.2 -- -- 100
2019-06-05 10:00:00 4.9 13 Oeste 27 Noroeste 0.2 -- -- 100
2019-06-05 09:00:00 4.6 12 Oeste 29 Oeste 0.4 -- -- 100
2019-06-05 08:00:00 4.6 14 Oeste 32 Oeste 0 -- -- 100
2019-06-05 07:00:00 4.7 7 Oeste 24 Oeste 0.2 -- -- 100
2019-06-05 06:00:00 4.8 6 Oeste 28 Oeste 0.4 -- -- 100
2019-06-05 05:00:00 5 10 Oeste 22 Oeste 0.2 -- -- 100
2019-06-05 04:00:00 5.2 9 Oeste 19 Oeste 0.2 -- -- 100
2019-06-05 03:00:00 5.2 9 Oeste 20 Noroeste 0 -- -- 100
2019-06-05 02:00:00 5.1 9 Oeste 19 Oeste 0.2 -- -- 100
2019-06-05 01:00:00 4.9 11 Oeste 32 Oeste 1.6 -- -- 99
2019-06-05 00:00:00 6.1 5 Noroeste 18 Oeste 0.6 -- -- 99
2019-06-04 23:00:00 6.1 7 Oeste 21 Noroeste 1.2 -- -- 98
2019-06-04 22:00:00 6.3 9 Oeste 31 Noroeste 0.8 -- -- 97
2019-06-04 21:00:00 7.3 12 Noroeste 29 Oeste 0.6 -- -- 93
2019-06-04 20:00:00 8.5 15 Oeste 34 Noroeste 0 -- -- 81
2019-06-04 19:00:00 9.5 12 Noroeste 40 Noroeste 0 -- -- 87
2019-06-04 18:00:00 11.2 14 Noroeste 31 Noroeste 0 -- -- 77
2019-06-04 17:00:00 12.3 10 Oeste 28 Sudoeste 0 -- -- 65
2019-06-04 16:00:00 12.9 12 Sudoeste 30 Oeste 0 -- -- 61
2019-06-04 15:00:00 11.4 10 Oeste 33 Sudoeste 0 -- -- 72
2019-06-04 14:00:00 10.2 10 Oeste 26 Oeste 0 -- -- 86
2019-06-04 13:00:00 10 6 Sudoeste 35 Oeste 0.2 -- -- 100
2019-06-04 12:00:00 9 9 Oeste 31 Sudoeste 2.6 -- -- 99
2019-06-04 11:00:00 9.5 12 Sudoeste 41 Sudoeste 0.4 -- -- 98
2019-06-04 10:00:00 10.2 14 Sudoeste 41 Sudoeste 0 -- -- 93
2019-06-04 09:00:00 9.9 13 Sur 32 Sur 0 -- -- 92
2019-06-04 08:00:00 9.5 14 Sur 37 Sudoeste 0 -- -- 89
2019-06-04 07:00:00 9.1 15 Sur 40 Sudoeste 0 -- -- 90
2019-06-04 06:00:00 8.7 15 Sudoeste 40 Sudoeste 0 -- -- 88
2019-06-04 05:00:00 8.6 14 Sudoeste 36 Sudoeste 0 -- -- 92
2019-06-04 04:00:00 8.8 12 Sudoeste 28 Sudoeste 0 -- -- 98
2019-06-04 03:00:00 9.1 9 Sudoeste 24 Sur 0 -- -- 99
2019-06-04 02:00:00 9.7 7 Sudoeste 19 Oeste 0 -- -- 99
2019-06-04 01:00:00 10.2 9 Oeste 20 Oeste 0 -- -- 98
2019-06-04 00:00:00 10.9 9 Oeste 22 Oeste 0 -- -- 96
2019-06-03 23:00:00 12.6 6 Oeste 14 Sudoeste 0 -- -- 94
2019-06-03 22:00:00 13.6 8 Oeste 21 Sudoeste 0 -- -- 91
2019-06-03 21:00:00 14.7 8 Sudoeste 21 Oeste 0 -- -- 82
2019-06-03 20:00:00 15.9 9 Sudoeste 32 Sudoeste 0 -- -- 77
2019-06-03 19:00:00 17.6 10 Oeste 24 Sudoeste 0 -- -- 71
2019-06-03 18:00:00 18.3 6 Sur 28 Oeste 0 -- -- 71
2019-06-03 17:00:00 18.2 10 Oeste 26 Sudoeste 0 -- -- 72
2019-06-03 16:00:00 18.2 10 Sudoeste 27 Oeste 0 -- -- 74
2019-06-03 15:00:00 17.7 9 Oeste 25 Oeste 0 -- -- 77
2019-06-03 14:00:00 16.8 10 Sudoeste 25 Oeste 0 -- -- 75
2019-06-03 13:00:00 16.1 10 Oeste 23 Sudoeste 0 -- -- 81
2019-06-03 12:00:00 14.8 10 Oeste 17 Oeste 0 -- -- 78
2019-06-03 11:00:00 14.6 9 Sudoeste 18 Sudoeste 0 -- -- 81
2019-06-03 10:00:00 13.9 5 Sudoeste 13 Sudoeste 0 -- -- 74
2019-06-03 09:00:00 13.1 5 Sur 13 Sudoeste 0 -- -- 80
2019-06-03 08:00:00 12.3 6 Sudoeste 13 Oeste 0 -- -- 77
2019-06-03 07:00:00 11.9 7 Sudoeste 13 Oeste 0 -- -- 70
2019-06-03 06:00:00 11.9 3 Sur 12 Sudoeste 0 -- -- 70
2019-06-03 05:00:00 12.2 6 Sudoeste 15 Sudoeste 0 -- -- 67
2019-06-03 04:00:00 11.9 2 Este 12 Sudoeste 0 -- -- 64
2019-06-03 03:00:00 11.6 5 Sudoeste 15 Sudoeste 0 -- -- 75
2019-06-03 02:00:00 11.7 9 Sudoeste 24 Oeste 0 -- -- 73
2019-06-03 01:00:00 12.9 13 Oeste 23 Oeste 0 -- -- 60
2019-06-03 00:00:00 13.3 9 Oeste 19 Oeste 0 -- -- 57
2019-06-02 23:00:00 13.9 12 Oeste 19 Oeste 0 -- -- 63
2019-06-02 22:00:00 14.7 10 Oeste 19 Oeste 0 -- -- 60
2019-06-02 21:00:00 15.8 9 Oeste 17 Sudoeste 0 -- -- 58
2019-06-02 20:00:00 17.4 9 Oeste 18 Oeste 0 -- -- 57
2019-06-02 19:00:00 20.4 7 Sudoeste 23 Sudoeste 0 -- -- 36
2019-06-02 18:00:00 21.5 9 Sudoeste 28 Oeste 0 -- -- 39
2019-06-02 17:00:00 20.6 14 Sudoeste 28 Sudoeste 0 -- -- 41
2019-06-02 16:00:00 20.6 11 Sudoeste 31 Sudoeste 0 -- -- 43
2019-06-02 15:00:00 20.4 14 Sudoeste 34 Sudoeste 0 -- -- 43
2019-06-02 14:00:00 20.1 11 Sudoeste 28 Sudoeste 0 -- -- 42
2019-06-02 13:00:00 18.7 9 Sudoeste 29 Sudoeste 0 -- -- 40
2019-06-02 12:00:00 19.7 9 Sudoeste 25 Sudoeste 0 -- -- 39
2019-06-02 11:00:00 18.6 8 Sudoeste 24 Sudoeste 0 -- -- 39
2019-06-02 10:00:00 18.3 7 Sudoeste 18 Sur 0 -- -- 38
2019-06-02 09:00:00 17.6 7 Sudoeste 17 Sudoeste 0 -- -- 38
2019-06-02 08:00:00 16.6 6 Sudoeste 17 Sudoeste 0 -- -- 35
2019-06-02 07:00:00 16 8 Sur 17 Sur 0 -- -- 37
2019-06-02 06:00:00 15.5 7 Sudoeste 13 Sudoeste 0 -- -- 39
2019-06-02 05:00:00 15.6 7 Sudoeste 15 Sudoeste 0 -- -- 39
2019-06-02 04:00:00 15.6 10 Sudoeste 15 Sudoeste 0 -- -- 47
2019-06-02 03:00:00 15.7 10 Oeste 15 Oeste 0 -- -- 53
2019-06-02 02:00:00 15.8 8 Oeste 10 Oeste 0 -- -- 56
2019-06-02 01:00:00 15.9 2 Noroeste 8 Noroeste 0 -- -- 58
2019-06-02 00:00:00 16.3 5 Sudoeste 21 Sudoeste 0 -- -- 54
2019-06-01 23:00:00 17.8 14 Oeste 25 Oeste 0 -- -- 48
2019-06-01 22:00:00 19.3 14 Oeste 25 Oeste 0 -- -- 43
2019-06-01 21:00:00 22 14 Oeste 27 Oeste 0 -- -- 44
2019-06-01 20:00:00 23.3 10 Oeste 24 Oeste 0 -- -- 39
2019-06-01 19:00:00 25.4 9 Oeste 26 Oeste 0 -- -- 41
2019-06-01 18:00:00 26.3 10 Sudoeste 26 Oeste 0 -- -- 26
2019-06-01 17:00:00 26.2 9 Sudoeste 27 Sudoeste 0 -- -- 27
2019-06-01 16:00:00 26.1 9 Sudoeste 29 Sudoeste 0 -- -- 30
2019-06-01 15:00:00 25.5 9 Sudoeste 29 Sudoeste 0 -- -- 37
2019-06-01 14:00:00 25 12 Oeste 26 Oeste 0 -- -- 39
2019-06-01 13:00:00 24.4 7 Sudoeste 19 Oeste 0 -- -- 45
2019-06-01 12:00:00 23.1 5 Sudoeste 13 Sudoeste 0 -- -- 54
2019-06-01 11:00:00 22.7 3 Sudeste 18 Sur 0 -- -- 59
2019-06-01 10:00:00 21.7 9 Sur 17 Sur 0 -- -- 54
2019-06-01 09:00:00 20.5 9 Sudeste 16 Sudeste 0 -- -- 53
2019-06-01 08:00:00 19.9 9 Sur 13 Sudeste 0 -- -- 52
2019-06-01 07:00:00 18.6 9 Sudeste 14 Sudeste 0 -- -- 56
2019-06-01 06:00:00 18 6 Sur 9 Sur 0 -- -- 52
2019-06-01 05:00:00 17.3 3 Sudoeste 9 Sudoeste 0 -- -- 56
2019-06-01 04:00:00 17.6 5 Sudoeste 8 Sudoeste 0 -- -- 52
2019-06-01 03:00:00 17.7 2 Sudeste 5 Este 0 -- -- 54
2019-06-01 02:00:00 17.9 2 Este 6 Nordeste 0 -- -- 54
2019-06-01 01:00:00 19 0 Calma 7 Norte 0 -- -- 51
2019-06-01 00:00:00 19.4 3 Nordeste 13 Nordeste 0 -- -- 50
2019-05-31 23:00:00 19.5 5 Nordeste 18 Nordeste 0 -- -- 52
2019-05-31 22:00:00 20.7 6 Noroeste 19 Noroeste 0 -- -- 51
2019-05-31 21:00:00 23.7 12 Noroeste 24 Noroeste 0 -- -- 43
2019-05-31 20:00:00 25 9 Oeste 17 Oeste 0 -- -- 36
2019-05-31 19:00:00 26.5 8 Noroeste 17 Noroeste 0 -- -- 36
2019-05-31 18:00:00 26.7 6 Noroeste 17 Noroeste 0 -- -- 36
2019-05-31 17:00:00 27.1 4 Oeste 18 Sudoeste 0 -- -- 36
2019-05-31 16:00:00 26.3 6 Noroeste 21 Oeste 0 -- -- 35
2019-05-31 15:00:00 25.6 7 Noroeste 21 Noroeste 0 -- -- 41
2019-05-31 14:00:00 25.1 8 Oeste 19 Oeste 0 -- -- 36
2019-05-31 13:00:00 24.7 4 Oeste 13 Noroeste 0 -- -- 44
2019-05-31 12:00:00 23.8 2 Este 10 Sudeste 0 -- -- 52
2019-05-31 11:00:00 21.7 3 Sudeste 14 Sudeste 0 -- -- 57
2019-05-31 10:00:00 20.7 5 Sudeste 15 Sudeste 0 -- -- 60
2019-05-31 09:00:00 19.5 9 Sudeste 20 Sur 0 -- -- 57
2019-05-31 08:00:00 18.3 12 Sudeste 18 Sudeste 0 -- -- 53
2019-05-31 07:00:00 17.3 12 Sudeste 19 Sudeste 0 -- -- 55
2019-05-31 06:00:00 17.5 13 Sudeste 33 Sudeste 0 -- -- 56
2019-05-31 05:00:00 17.8 15 Sudeste 37 Este 0 -- -- 56
2019-05-31 04:00:00 18 14 Sudeste 36 Sudeste 0 -- -- 55
2019-05-31 03:00:00 17.9 14 Sudeste 29 Este 0 -- -- 53
2019-05-31 02:00:00 15.3 2 Sudeste 14 Este 0 -- -- 69
2019-05-31 01:00:00 16.3 2 Este 14 Sudeste 0 -- -- 66
2019-05-31 00:00:00 17.4 3 Nordeste 19 Este 0 -- -- 62
2019-05-30 23:00:00 18.5 6 Nordeste 18 Este 0 -- -- 58
2019-05-30 22:00:00 19 7 Nordeste 18 Norte 0 -- -- 60
2019-05-30 21:00:00 20.8 5 Nordeste 18 Nordeste 0 -- -- 58
2019-05-30 20:00:00 22.1 6 Noroeste 20 Norte 0 -- -- 51
2019-05-30 19:00:00 24 9 Noroeste 20 Noroeste 0 -- -- 48
2019-05-30 18:00:00 24.4 7 Noroeste 19 Noroeste 0 -- -- 48
2019-05-30 17:00:00 25.6 7 Noroeste 21 Oeste 0 -- -- 45
2019-05-30 16:00:00 24.9 5 Norte 13 Noroeste 0 -- -- 48
2019-05-30 15:00:00 24.6 3 Nordeste 13 Este 0 -- -- 45
2019-05-30 14:00:00 23.9 4 Nordeste 10 Nordeste 0 -- -- 46
2019-05-30 13:00:00 23 2 Este 7 Este 0 -- -- 52
2019-05-30 12:00:00 21 3 Este 8 Este 0 -- -- 55
2019-05-30 11:00:00 19.3 3 Este 6 Sudeste 0 -- -- 57
2019-05-30 10:00:00 17.8 2 Sudeste 6 Sudeste 0 -- -- 63
2019-05-30 09:00:00 16.7 0 Calma 3 Sudoeste 0 -- -- 65
2019-05-30 08:00:00 15.5 0 Calma 8 Sudoeste 0 -- -- 61
2019-05-30 07:00:00 14.3 4 Sudoeste 10 Sur 0 -- -- 59
2019-05-30 06:00:00 16.4 10 Sur 21 Sudeste 0 -- -- 50
2019-05-30 05:00:00 15.4 15 Sudeste 25 Sudeste 0 -- -- 55
2019-05-30 04:00:00 15.1 14 Sudeste 23 Sudeste 0 -- -- 54
2019-05-30 03:00:00 14.4 13 Sudeste 21 Sudeste 0 -- -- 58
2019-05-30 02:00:00 12.4 2 Este 6 Nordeste 0 -- -- 78
2019-05-30 01:00:00 13.5 3 Este 12 Nordeste 0 -- -- 73
2019-05-30 00:00:00 14 3 Este 13 Nordeste 0 -- -- 70
2019-05-29 23:00:00 14.6 4 Nordeste 18 Nordeste 0 -- -- 68
2019-05-29 22:00:00 16.1 4 Nordeste 18 Nordeste 0 -- -- 59
2019-05-29 21:00:00 17.9 5 Nordeste 18 Nordeste 0 -- -- 55
2019-05-29 20:00:00 18.3 4 Nordeste 17 Nordeste 0 -- -- 50
2019-05-29 19:00:00 19.9 4 Nordeste 23 Nordeste 0 -- -- 50
2019-05-29 18:00:00 20.4 7 Nordeste 21 Nordeste 0 -- -- 43
2019-05-29 17:00:00 20.6 4 Nordeste 17 Norte 0 -- -- 46
2019-05-29 16:00:00 20.5 6 Nordeste 23 Este 0 -- -- 47
2019-05-29 15:00:00 20 4 Este 18 Nordeste 0 -- -- 49
2019-05-29 14:00:00 19.6 3 Nordeste 16 Nordeste 0 -- -- 54
2019-05-29 13:00:00 18.5 4 Nordeste 19 Nordeste 0 -- -- 61
2019-05-29 12:00:00 16.7 4 Nordeste 21 Nordeste 0 -- -- 65
2019-05-29 11:00:00 13.3 3 Este 10 Nordeste 0 -- -- 72
2019-05-29 10:00:00 10.6 4 Este 15 Este 0 -- -- 78
2019-05-29 09:00:00 8.4 5 Este 18 Sudeste 0 -- -- 83
2019-05-29 08:00:00 6.3 4 Este 14 Norte 0 -- -- 93
2019-05-29 07:00:00 4.5 4 Este 21 Nordeste 0 -- -- 97
2019-05-29 06:00:00 4.7 4 Este 13 Nordeste 0 -- -- 97
2019-05-29 05:00:00 4.9 3 Este 12 Este 0 -- -- 95
2019-05-29 04:00:00 5.3 4 Este 21 Este 0 -- -- 93
2019-05-29 03:00:00 5.3 4 Nordeste 13 Este 0 -- -- 93
2019-05-29 02:00:00 5.7 4 Nordeste 14 Este 0 -- -- 91
2019-05-29 01:00:00 6.2 4 Este 16 Sudeste 0 -- -- 89
2019-05-29 00:00:00 6.8 5 Este 20 Este 0 -- -- 85
2019-05-28 23:00:00 7.8 6 Nordeste 19 Norte 0 -- -- 77
2019-05-28 22:00:00 8.8 6 Nordeste 27 Nordeste 0 -- -- 74
2019-05-28 21:00:00 10.2 6 Nordeste 22 Nordeste 0 -- -- 68
2019-05-28 20:00:00 10.9 6 Nordeste 26 Nordeste 0 -- -- 61
2019-05-28 19:00:00 12.8 8 Nordeste 25 Nordeste 0 -- -- 59
2019-05-28 18:00:00 14.1 7 Nordeste 23 Norte 0 -- -- 51
2019-05-28 17:00:00 14.7 7 Nordeste 26 Norte 0 -- -- 55
2019-05-28 16:00:00 14.8 9 Nordeste 26 Nordeste 0 -- -- 54
2019-05-28 15:00:00 14.4 8 Nordeste 25 Nordeste 0 -- -- 60
2019-05-28 14:00:00 14 8 Nordeste 24 Nordeste 0 -- -- 64
2019-05-28 13:00:00 12.4 5 Nordeste 21 Nordeste 0 -- -- 71
2019-05-28 12:00:00 10.9 6 Nordeste 21 Nordeste 0 -- -- 75
2019-05-28 11:00:00 10.5 5 Nordeste 25 Nordeste 0 -- -- 75
2019-05-28 10:00:00 9.3 7 Nordeste 32 Este 0 -- -- 80
2019-05-28 09:00:00 7.5 5 Nordeste 23 Nordeste 0 -- -- 88
2019-05-28 08:00:00 5.7 6 Nordeste 24 Nordeste 0 -- -- 93
2019-05-28 07:00:00 3.9 6 Nordeste 21 Nordeste 0 -- -- 97
2019-05-28 06:00:00 4.1 7 Nordeste 22 Nordeste 0 -- -- 99
2019-05-28 05:00:00 4.5 6 Nordeste 23 Sudeste 0 -- -- 99
2019-05-28 04:00:00 4.7 6 Nordeste 30 Nordeste 0 -- -- 99
2019-05-28 03:00:00 4.8 9 Nordeste 24 Este 0 -- -- 100
2019-05-28 02:00:00 5 8 Nordeste 23 Nordeste 0 -- -- 100
2019-05-28 01:00:00 5.3 8 Nordeste 22 Este 0 -- -- 99
2019-05-28 00:00:00 5.7 8 Nordeste 19 Nordeste 0 -- -- 98
2019-05-27 23:00:00 6.7 8 Nordeste 19 Nordeste 0 -- -- 95
2019-05-27 22:00:00 8 8 Nordeste 19 Nordeste 0 -- -- 92
2019-05-27 21:00:00 10.3 7 Nordeste 21 Norte 0 -- -- 81
2019-05-27 20:00:00 11.9 6 Norte 20 Norte 0 -- -- 73
2019-05-27 19:00:00 13.7 7 Norte 18 Norte 0 -- -- 72
2019-05-27 18:00:00 14.7 8 Norte 21 Norte 0 -- -- 72
2019-05-27 17:00:00 15.6 6 Nordeste 21 Norte 0 -- -- 69
2019-05-27 16:00:00 15.5 7 Norte 25 Norte 0 -- -- 72
2019-05-27 15:00:00 15.7 9 Norte 22 Norte 0 -- -- 75
2019-05-27 14:00:00 15.2 8 Nordeste 22 Norte 0 -- -- 76
2019-05-27 13:00:00 13.7 7 Norte 21 Norte 0 -- -- 88
2019-05-27 12:00:00 11.6 7 Norte 17 Norte 0 -- -- 96
2019-05-27 11:00:00 11.3 4 Nordeste 13 Nordeste 0 -- -- 97
2019-05-27 10:00:00 10.4 3 Nordeste 14 Nordeste 0 -- -- 98
2019-05-27 09:00:00 10 5 Norte 11 Noroeste 0 -- -- 92
2019-05-27 08:00:00 9.8 4 Nordeste 11 Nordeste 0 -- -- 84
2019-05-27 07:00:00 9.9 3 Nordeste 8 Noroeste 0 -- -- 92
2019-05-27 06:00:00 9.9 4 Norte 11 Nordeste 0 -- -- 87
2019-05-27 05:00:00 9.9 3 Nordeste 8 Nordeste 0 -- -- 88
2019-05-27 04:00:00 9.5 2 Este 7 Este 0 -- -- 90
2019-05-27 03:00:00 9.7 2 Nordeste 9 Oeste 0 -- -- 89
2019-05-27 02:00:00 10.2 0 Calma 6 Nordeste 0 -- -- 86
2019-05-27 01:00:00 10.7 3 Norte 8 Nordeste 0 -- -- 84
2019-05-27 00:00:00 11 3 Nordeste 8 Nordeste 0 -- -- 83
2019-05-26 23:00:00 11.6 4 Nordeste 17 Nordeste 0 -- -- 82
2019-05-26 22:00:00 11.9 10 Noroeste 16 Noroeste 0 -- -- 83
2019-05-26 21:00:00 14.1 8 Noroeste 21 Oeste 0 -- -- 72
2019-05-26 20:00:00 15.6 12 Noroeste 21 Noroeste 0 -- -- 66
2019-05-26 19:00:00 17.8 11 Noroeste 24 Noroeste 0 -- -- 56
2019-05-26 18:00:00 18.8 9 Noroeste 20 Norte 0 -- -- 54
2019-05-26 17:00:00 19.5 8 Norte 22 Noroeste 0 -- -- 54
2019-05-26 16:00:00 19.1 6 Norte 20 Norte 0 -- -- 59
2019-05-26 15:00:00 18.4 6 Norte 20 Norte 0 -- -- 57
2019-05-26 14:00:00 17.1 6 Norte 14 Norte 0 -- -- 61
2019-05-26 13:00:00 15.3 4 Noroeste 12 Nordeste 0 -- -- 67
2019-05-26 12:00:00 13.7 5 Norte 11 Norte 0 -- -- 77
2019-05-26 11:00:00 13.3 6 Norte 10 Norte 0 -- -- 70
2019-05-26 10:00:00 12.7 2 Este 11 Nordeste 0 -- -- 74
2019-05-26 09:00:00 11.6 3 Este 14 Nordeste 0 -- -- 78
2019-05-26 08:00:00 9.3 4 Este 12 Este 0 -- -- 85
2019-05-26 07:00:00 8.4 3 Nordeste 11 Este 0 -- -- 81
2019-05-26 06:00:00 9.2 4 Nordeste 9 Nordeste 0 -- -- 73
2019-05-26 05:00:00 8.3 3 Nordeste 12 Este 0 -- -- 84
2019-05-26 04:00:00 7.8 4 Este 21 Nordeste 0 -- -- 89
2019-05-26 03:00:00 7.8 4 Nordeste 14 Nordeste 0 -- -- 88
2019-05-26 02:00:00 7.6 3 Este 10 Este 0 -- -- 90
2019-05-26 01:00:00 8.5 3 Nordeste 11 Nordeste 0 -- -- 89
2019-05-26 00:00:00 8.6 3 Este 15 Nordeste 0 -- -- 90
2019-05-25 23:00:00 9.1 5 Nordeste 17 Este 0 -- -- 90
2019-05-25 22:00:00 10.5 6 Nordeste 13 Norte 0 -- -- 86
2019-05-25 21:00:00 13.1 6 Norte 22 Norte 0 -- -- 77
2019-05-25 20:00:00 14.1 8 Norte 19 Norte 0 -- -- 72
2019-05-25 19:00:00 16 5 Nordeste 20 Nordeste 0 -- -- 58
2019-05-25 18:00:00 16.6 6 Nordeste 24 Norte 0 -- -- 58
2019-05-25 17:00:00 16.7 9 Norte 24 Nordeste 0 -- -- 59
2019-05-25 16:00:00 16.9 9 Nordeste 22 Norte 0 -- -- 56
2019-05-25 15:00:00 16.6 7 Nordeste 24 Nordeste 0 -- -- 61
2019-05-25 14:00:00 16.4 8 Nordeste 23 Nordeste 0 -- -- 58
2019-05-25 13:00:00 15.2 8 Nordeste 19 Nordeste 0 -- -- 67
2019-05-25 12:00:00 14.3 7 Nordeste 21 Nordeste 0 -- -- 64
2019-05-25 11:00:00 12.5 5 Nordeste 23 Nordeste 0 -- -- 70
2019-05-25 10:00:00 10 6 Nordeste 23 Nordeste 0 -- -- 84
2019-05-25 09:00:00 8.6 6 Nordeste 24 Norte 0 -- -- 90
2019-05-25 08:00:00 6.4 6 Nordeste 22 Nordeste 0 -- -- 100
2019-05-25 07:00:00 5.5 6 Nordeste 19 Este 0 -- -- 100
2019-05-25 06:00:00 5.6 5 Nordeste 18 Nordeste 0 -- -- 100
2019-05-25 05:00:00 5.9 4 Nordeste 17 Nordeste 0 -- -- 99
2019-05-25 04:00:00 6.1 5 Nordeste 22 Nordeste 0 -- -- 98
2019-05-25 03:00:00 6.4 6 Nordeste 21 Este 0 -- -- 97
2019-05-25 02:00:00 6.5 7 Nordeste 24 Este 0 -- -- 94
2019-05-25 01:00:00 6.8 6 Nordeste 27 Este 0 -- -- 93
2019-05-25 00:00:00 6.6 6 Nordeste 23 Nordeste 0 -- -- 96